Accueil
METAR-TAF:

METAR-TAF

Aéroports :

Aéroport de Gran Canaria

Grande Canarie, Espagne

latitude: 27-56N, longitude: 015-23W, altitude: 23 m

Observation

Le bulletin a été fait il y a 29 minutes, à 20:30 UTC
Vent calme
Température 22°C
Humidité 73%
Pression 1016 hPa
Visibilité 10 km ou plus
pas de nuages en-dessous de 1500 mètres et pas de cumulonimbus.

METAR: GCLP 212030Z 00000KT CAVOK 22/17 Q1016 NOSIG

Heure: 21:59 (20:59 UTC)

Prévision

Le bulletin a été fait il y a 59 minutes, à 20:00 UTC
Prévision valable du 21 à 21 UTC au 22 à 21 UTC
Vent 5 kt de ouest
Visibilité 10 km ou plus
Quelques nuages à une hauteur de 3000 ft
Evoluant progressivement
du 22 à 09 UTC au 22 à 11 UTC
Vent 17 kt de sud
Evoluant progressivement
du 22 à 18 UTC au 22 à 20 UTC
Vent 7 kt de ouest/sud-ouest

TAF: GCLP 212000Z 2121/2221 28005KT 9999 FEW030 TX25/2214Z TN18/2205Z BECMG 2209/2211 18017KT BECMG 2218/2220 24007KT

Observations et prévisions météorologiques de plus de 4000 aéroports (messages METAR et TAF).

Les stations disponibles sont représentées par des disques jaunes et rouges sur la carte.

Passer la souris dessus pour voir le nom de la station.

Cliquer dessus pour voir les observations et prévisions météorologiques.

Pour changer de carte: cliquez sur les boutons verts avec une croix noire pour zoomer, sur le bouton vert avec un tiret pour effectuer un zoom arrière, ou sur les flèches vertes pour les cartes adjacentes.


METAR-TAF: